Time;durP1;ratioP1;P1;durP2;ratioP2;P2;SDS_P1;SDS_P2;PMS_P1;PMS_P2;Temp;Humidity;BMP_temperature;BMP_pressure;BME280_temperature;BME280_humidity;BME280_pressure;Samples;Min_cycle;Max_cycle;Signal;HPM_P1;HPM_P2
2023/06/30 00:00:28;;;;;;;9.32;4.65;;;17.80;99.90;;;;;;2603010;54;20110;31
2023/06/30 00:03:04;;;;;;;5.60;4.90;;;17.80;99.90;;;;;;2602400;54;20026;31
2023/06/30 00:05:40;;;;;;;7.63;5.70;;;17.80;99.90;;;;;;2603308;54;20945;31
2023/06/30 00:08:17;;;;;;;9.70;6.43;;;17.70;99.90;;;;;;2602810;54;20031;31
2023/06/30 00:10:57;;;;;;;7.85;5.30;;;17.70;99.90;;;;;;2603258;54;20346;31
2023/06/30 00:13:35;;;;;;;9.23;6.07;;;17.70;99.90;;;;;;2603297;54;20845;31
2023/06/30 00:16:14;;;;;;;8.25;6.10;;;17.70;99.90;;;;;;2602638;54;20161;31
2023/06/30 00:18:55;;;;;;;12.13;7.18;;;17.70;99.90;;;;;;2603169;54;20949;31
2023/06/30 00:21:41;;;;;;;9.80;5.47;;;17.80;99.90;;;;;;2603206;54;20050;31
2023/06/30 00:24:18;;;;;;;8.25;5.65;;;17.70;99.90;;;;;;2603219;54;20298;31
2023/06/30 00:26:53;;;;;;;6.75;4.93;;;17.70;99.90;;;;;;2603202;54;20030;31
2023/06/30 00:29:33;;;;;;;12.70;6.25;;;17.70;99.90;;;;;;2603055;54;20030;31
2023/06/30 00:32:13;;;;;;;10.50;6.60;;;17.70;99.90;;;;;;2603115;54;20102;31
2023/06/30 00:34:49;;;;;;;10.50;6.30;;;17.70;99.90;;;;;;2621313;46;22880;31
2023/06/30 00:37:27;;;;;;;8.90;6.73;;;17.70;99.90;;;;;;2621526;46;20081;31
2023/06/30 00:40:03;;;;;;;7.75;5.82;;;17.70;99.90;;;;;;2616491;46;20871;31
2023/06/30 00:42:38;;;;;;;8.50;5.50;;;17.60;99.90;;;;;;2602325;54;20022;31
2023/06/30 00:45:17;;;;;;;7.32;6.15;;;17.70;99.90;;;;;;2602204;54;21232;31
2023/06/30 00:47:58;;;;;;;8.15;5.43;;;17.60;99.90;;;;;;2620821;46;20052;31
2023/06/30 00:53:08;;;;;;;6.57;5.88;;;17.60;99.90;;;;;;2602953;54;20026;31
2023/06/30 00:55:47;;;;;;;10.20;5.15;;;17.60;99.90;;;;;;2603127;54;20080;31
2023/06/30 00:58:23;;;;;;;9.07;5.97;;;17.60;99.90;;;;;;2602215;54;20865;31
2023/06/30 01:01:02;;;;;;;6.90;5.80;;;17.60;99.90;;;;;;2621503;46;20884;31
2023/06/30 01:03:44;;;;;;;13.43;6.32;;;17.60;99.90;;;;;;2602820;54;20751;31
2023/06/30 01:06:20;;;;;;;11.98;6.65;;;17.60;99.90;;;;;;2602789;54;20113;31
2023/06/30 01:09:03;;;;;;;8.00;6.25;;;17.60;99.90;;;;;;2615264;46;20109;31
2023/06/30 01:11:39;;;;;;;6.90;4.85;;;17.60;99.90;;;;;;2612718;46;20936;31
2023/06/30 01:14:17;;;;;;;10.97;6.13;;;17.60;99.90;;;;;;2602125;54;20026;31
2023/06/30 01:16:56;;;;;;;7.72;5.43;;;17.50;99.90;;;;;;2602850;54;20026;31
2023/06/30 01:19:37;;;;;;;8.55;5.70;;;17.50;99.90;;;;;;2602789;54;20846;31
2023/06/30 01:22:17;;;;;;;11.07;6.72;;;17.60;99.90;;;;;;2602705;54;20065;31
2023/06/30 01:25:04;;;;;;;7.07;5.30;;;17.50;99.90;;;;;;2602978;54;20891;31
2023/06/30 01:27:40;;;;;;;13.67;6.20;;;17.50;99.90;;;;;;2621412;46;20038;31
2023/06/30 01:30:16;;;;;;;13.75;7.65;;;17.50;99.90;;;;;;2602993;54;20125;31
2023/06/30 01:32:54;;;;;;;9.63;6.40;;;17.50;99.90;;;;;;2602847;54;20032;31
2023/06/30 01:35:34;;;;;;;10.02;6.07;;;17.40;99.90;;;;;;2603058;54;20034;31
2023/06/30 01:38:12;;;;;;;11.55;6.78;;;17.40;99.90;;;;;;2602879;54;20026;31
2023/06/30 01:40:55;;;;;;;12.98;6.50;;;17.40;99.90;;;;;;2603001;54;20026;31
2023/06/30 01:43:32;;;;;;;7.10;4.85;;;17.40;99.90;;;;;;2601974;54;20031;31
2023/06/30 01:46:07;;;;;;;7.45;5.40;;;17.40;99.90;;;;;;2602780;54;20034;31
2023/06/30 01:48:46;;;;;;;9.48;5.78;;;17.40;99.90;;;;;;2602841;54;20081;31
2023/06/30 01:51:21;;;;;;;9.55;5.85;;;17.50;99.90;;;;;;2602797;54;20853;31
2023/06/30 01:54:07;;;;;;;12.10;6.25;;;17.50;99.90;;;;;;2602653;54;20834;31
2023/06/30 01:56:46;;;;;;;7.20;5.80;;;17.50;99.90;;;;;;2602712;54;20210;31
2023/06/30 01:59:22;;;;;;;10.57;6.28;;;17.50;99.90;;;;;;2606826;46;20116;31
2023/06/30 02:01:59;;;;;;;11.95;6.63;;;17.50;99.90;;;;;;2602770;54;20050;31
2023/06/30 02:04:35;;;;;;;8.93;7.00;;;17.50;99.90;;;;;;2602784;54;20858;31
2023/06/30 02:07:12;;;;;;;9.07;5.88;;;17.30;99.90;;;;;;2602927;54;20068;31
2023/06/30 02:09:52;;;;;;;12.75;6.28;;;17.40;99.90;;;;;;2602606;54;20034;31
2023/06/30 02:12:28;;;;;;;8.90;6.03;;;17.50;99.90;;;;;;2602617;54;20038;31
2023/06/30 02:15:06;;;;;;;9.15;6.00;;;17.40;99.90;;;;;;2602856;54;20027;31
2023/06/30 02:17:41;;;;;;;19.07;6.43;;;17.40;99.90;;;;;;2620638;47;21416;31
2023/06/30 02:20:22;;;;;;;7.43;5.53;;;17.50;99.90;;;;;;2602657;54;20297;31
2023/06/30 02:22:56;;;;;;;9.68;6.28;;;17.50;99.90;;;;;;2621892;46;20874;31
2023/06/30 02:25:35;;;;;;;6.95;5.70;;;17.40;99.90;;;;;;2606092;46;20026;31
2023/06/30 02:28:11;;;;;;;10.77;6.32;;;17.50;99.90;;;;;;2603537;54;20943;31
2023/06/30 02:30:47;;;;;;;9.40;7.00;;;17.50;99.90;;;;;;2603517;54;20926;31
2023/06/30 02:33:23;;;;;;;9.65;6.30;;;17.50;99.90;;;;;;2603212;54;20031;31
2023/06/30 02:36:06;;;;;;;10.07;6.27;;;17.40;99.90;;;;;;2603467;54;20033;31
2023/06/30 02:38:43;;;;;;;7.30;6.45;;;17.40;99.90;;;;;;2603536;54;20050;31
2023/06/30 02:41:24;;;;;;;12.65;6.45;;;17.40;99.90;;;;;;2603393;54;20867;31
2023/06/30 02:44:03;;;;;;;6.70;5.20;;;17.40;99.90;;;;;;2603546;54;20023;31
2023/06/30 02:46:39;;;;;;;9.43;6.17;;;17.40;99.90;;;;;;2602884;54;20801;31
2023/06/30 02:49:15;;;;;;;10.25;6.90;;;17.40;99.90;;;;;;2603761;54;20140;31
2023/06/30 02:51:51;;;;;;;15.43;8.77;;;17.40;99.90;;;;;;2603374;54;20026;31
2023/06/30 02:54:31;;;;;;;8.90;5.55;;;17.40;99.90;;;;;;2603367;54;20261;31
2023/06/30 02:57:12;;;;;;;9.40;5.53;;;17.40;99.90;;;;;;2603484;54;20022;31
2023/06/30 02:59:49;;;;;;;9.32;6.25;;;17.40;99.90;;;;;;2603554;54;20881;31
2023/06/30 03:02:25;;;;;;;12.30;6.65;;;17.40;99.90;;;;;;2603601;54;20045;31
2023/06/30 03:05:01;;;;;;;9.00;5.75;;;17.40;99.90;;;;;;2603371;54;20057;31
2023/06/30 03:07:40;;;;;;;12.98;7.97;;;17.40;99.90;;;;;;2603413;54;20917;31
2023/06/30 03:10:17;;;;;;;13.77;5.95;;;17.40;99.90;;;;;;2603281;54;20856;31
2023/06/30 03:12:57;;;;;;;10.73;6.85;;;17.40;99.90;;;;;;2603364;54;20022;31
2023/06/30 03:15:34;;;;;;;10.68;6.38;;;17.50;99.90;;;;;;2603250;54;20027;31
2023/06/30 03:18:10;;;;;;;8.75;6.55;;;17.40;99.90;;;;;;2603328;54;20057;31
2023/06/30 03:20:48;;;;;;;9.35;7.03;;;17.50;99.90;;;;;;2603460;54;20072;31
2023/06/30 03:23:24;;;;;;;10.90;8.15;;;17.50;99.90;;;;;;2603352;54;20046;31
2023/06/30 03:26:02;;;;;;;10.48;7.57;;;17.50;99.90;;;;;;2621854;46;20045;31
2023/06/30 03:28:38;;;;;;;12.40;7.00;;;17.50;99.90;;;;;;2603511;54;20081;31
2023/06/30 03:31:19;;;;;;;9.88;6.22;;;17.40;99.90;;;;;;2602493;54;20060;31
2023/06/30 03:33:55;;;;;;;8.05;7.15;;;17.40;99.90;;;;;;2621758;46;20077;31
2023/06/30 03:36:34;;;;;;;11.15;8.00;;;17.30;99.90;;;;;;2621720;46;20026;31
2023/06/30 03:39:13;;;;;;;11.65;6.50;;;17.30;99.90;;;;;;2602493;54;20030;31
2023/06/30 03:41:53;;;;;;;11.03;7.20;;;17.40;99.90;;;;;;2602566;54;20026;31
2023/06/30 03:44:30;;;;;;;10.45;7.22;;;17.40;99.90;;;;;;2701568;39;21575;31
2023/06/30 03:47:11;;;;;;;;;;;17.40;99.90;;;;;;2702141;39;21693;31
2023/06/30 03:49:52;;;;;;;10.90;7.55;;;17.40;99.90;;;;;;2603086;54;21552;31
2023/06/30 03:52:29;;;;;;;10.30;7.40;;;17.40;99.90;;;;;;2603402;54;20022;31
2023/06/30 03:55:12;;;;;;;12.93;8.17;;;17.30;99.90;;;;;;2621786;46;20030;31
2023/06/30 03:57:48;;;;;;;13.02;8.25;;;17.30;99.90;;;;;;2603436;54;20046;31
2023/06/30 04:00:24;;;;;;;7.35;6.35;;;17.30;99.90;;;;;;2603348;54;20033;31
2023/06/30 04:03:03;;;;;;;11.98;7.88;;;17.30;99.90;;;;;;2620482;46;20030;31
2023/06/30 04:05:43;;;;;;;13.47;8.13;;;17.40;99.90;;;;;;2603246;54;20033;31
2023/06/30 04:08:21;;;;;;;11.25;6.90;;;17.40;99.90;;;;;;2603337;54;20026;31
2023/06/30 04:13:39;;;;;;;13.57;7.95;;;17.40;99.90;;;;;;2603265;54;20870;31
2023/06/30 04:16:17;;;;;;;11.73;7.32;;;17.50;99.90;;;;;;2602777;54;20085;31
2023/06/30 04:21:32;;;;;;;12.93;7.95;;;17.50;99.90;;;;;;2701560;39;21559;31
2023/06/30 04:24:11;;;;;;;11.35;7.30;;;17.60;99.90;;;;;;2621674;46;20891;31
2023/06/30 04:26:48;;;;;;;12.35;8.15;;;17.50;99.90;;;;;;2603416;54;20979;31
2023/06/30 04:29:27;;;;;;;9.85;7.05;;;17.60;99.90;;;;;;2603153;54;20106;31
2023/06/30 04:32:07;;;;;;;9.35;6.70;;;17.60;99.90;;;;;;2603020;54;21700;31
2023/06/30 04:34:46;;;;;;;10.53;7.23;;;17.60;99.90;;;;;;2603102;54;20033;31
2023/06/30 04:37:28;;;;;;;11.10;7.50;;;17.60;99.90;;;;;;2603194;54;22375;31
2023/06/30 04:40:11;;;;;;;11.35;7.63;;;17.60;99.90;;;;;;2621098;46;20779;31
2023/06/30 04:45:17;;;;;;;10.00;7.40;;;17.60;99.90;;;;;;2602957;54;20868;31
2023/06/30 04:47:55;;;;;;;9.23;8.13;;;17.70;99.90;;;;;;2602753;54;20757;31
2023/06/30 04:50:32;;;;;;;12.38;8.00;;;17.70;99.90;;;;;;2621570;46;20033;31
2023/06/30 04:53:20;;;;;;;13.48;7.20;;;17.70;99.90;;;;;;2621109;46;22360;31
2023/06/30 04:55:56;;;;;;;9.82;7.57;;;17.70;99.90;;;;;;2602911;54;20637;31
2023/06/30 04:58:34;;;;;;;11.40;7.65;;;17.80;99.90;;;;;;2603113;54;20830;31
2023/06/30 05:01:14;;;;;;;9.90;7.80;;;17.80;99.90;;;;;;2602876;54;20117;31
2023/06/30 05:03:56;;;;;;;9.85;7.05;;;17.80;99.90;;;;;;2621279;46;20863;31
2023/06/30 05:06:34;;;;;;;8.70;6.95;;;17.80;99.90;;;;;;2602931;54;20801;31
2023/06/30 05:09:14;;;;;;;10.52;7.20;;;17.90;99.90;;;;;;2603079;54;20089;31
2023/06/30 05:11:49;;;;;;;11.13;6.80;;;17.80;99.90;;;;;;2602993;54;20104;31
2023/06/30 05:14:27;;;;;;;11.63;7.30;;;17.90;99.90;;;;;;2602113;54;20034;31
2023/06/30 05:17:06;;;;;;;13.45;7.32;;;17.90;99.90;;;;;;2602823;54;21219;31
2023/06/30 05:19:41;;;;;;;11.20;7.60;;;17.90;99.90;;;;;;2621524;46;20063;31
2023/06/30 05:22:23;;;;;;;14.03;8.03;;;18.00;99.90;;;;;;2621294;46;20036;31
2023/06/30 05:25:05;;;;;;;11.98;7.47;;;18.10;99.90;;;;;;2602270;54;20886;31
2023/06/30 05:27:41;;;;;;;15.40;8.25;;;18.00;99.90;;;;;;2602783;54;20026;31
2023/06/30 05:30:20;;;;;;;14.70;7.25;;;18.00;99.90;;;;;;2602910;54;20154;31
2023/06/30 05:32:58;;;;;;;9.10;6.85;;;18.10;99.90;;;;;;2772703;31;21634;31
2023/06/30 05:38:10;;;;;;;9.98;7.43;;;18.20;99.90;;;;;;2602920;54;20057;31
2023/06/30 05:40:51;;;;;;;12.45;7.75;;;18.20;99.90;;;;;;2602741;54;20022;31
2023/06/30 05:43:28;;;;;;;9.93;6.18;;;18.30;99.90;;;;;;2603007;54;20054;31
2023/06/30 05:46:04;;;;;;;8.57;6.73;;;18.40;99.90;;;;;;2602754;54;20113;31
2023/06/30 05:48:44;;;;;;;9.40;6.85;;;18.50;99.90;;;;;;2621344;46;20934;31
2023/06/30 05:51:20;;;;;;;11.02;7.47;;;18.60;99.90;;;;;;2602631;54;20049;31
2023/06/30 05:53:56;;;;;;;8.52;6.07;;;18.70;99.90;;;;;;2621142;46;20034;31
2023/06/30 05:56:36;;;;;;;11.83;6.57;;;18.80;99.90;;;;;;2602778;54;20890;31
2023/06/30 05:59:21;;;;;;;9.18;5.20;;;19.00;99.90;;;;;;2602566;54;21202;31
2023/06/30 06:04:51;;;;;;;12.45;6.70;;;19.30;99.90;;;;;;2602690;54;20034;31
2023/06/30 06:10:23;;;;;;;9.85;6.50;;;19.70;99.90;;;;;;2621426;47;20870;31
2023/06/30 06:13:02;;;;;;;9.45;6.15;;;20.00;99.90;;;;;;2602722;54;20831;31
2023/06/30 06:15:44;;;;;;;9.18;6.70;;;20.20;99.90;;;;;;2602679;54;20023;31
2023/06/30 06:18:19;;;;;;;9.95;6.28;;;20.60;99.90;;;;;;2621151;47;20977;31
2023/06/30 06:20:59;;;;;;;8.27;5.45;;;20.90;99.90;;;;;;2602696;54;20187;31
2023/06/30 06:23:43;;;;;;;11.60;6.60;;;21.10;99.90;;;;;;2602620;54;20034;31
2023/06/30 06:26:36;;;;;;;9.98;5.68;;;21.20;99.90;;;;;;2602611;54;20778;31
2023/06/30 06:29:29;;;;;;;10.43;5.65;;;21.30;99.90;;;;;;2602659;54;20788;31
2023/06/30 06:32:05;;;;;;;8.75;6.10;;;21.40;99.90;;;;;;2620830;47;20031;31
2023/06/30 06:43:26;;;;;;;9.47;5.90;;;22.30;99.90;;;;;;2672691;39;21420;31
2023/06/30 06:46:06;;;;;;;12.52;6.63;;;22.60;99.90;;;;;;2602271;54;20109;31
2023/06/30 06:48:44;;;;;;;10.20;5.40;;;22.80;99.90;;;;;;2700930;39;20483;31
2023/06/30 06:51:41;;;;;;;11.93;5.72;;;23.20;99.90;;;;;;2602553;54;20761;31
2023/06/30 06:54:26;;;;;;;;;;;23.50;99.90;;;;;;2602497;54;20026;31
2023/06/30 06:57:06;;;;;;;10.10;5.15;;;24.10;99.90;;;;;;2601845;47;20669;31
2023/06/30 06:59:53;;;;;;;9.35;5.53;;;24.60;99.90;;;;;;2602545;54;20871;31
2023/06/30 07:02:35;;;;;;;11.90;5.70;;;24.90;99.90;;;;;;2601888;54;20038;31
2023/06/30 07:05:15;;;;;;;8.68;5.28;;;25.20;99.90;;;;;;2601866;54;20777;31
2023/06/30 07:07:54;;;;;;;8.77;5.00;;;25.30;99.90;;;;;;2602606;54;20121;31
2023/06/30 07:10:35;;;;;;;6.95;4.53;;;25.60;99.90;;;;;;2621185;46;20118;31
2023/06/30 07:13:18;;;;;;;7.30;5.15;;;25.80;99.90;;;;;;2603241;54;21161;31
2023/06/30 07:16:10;;;;;;;9.80;4.83;;;25.90;99.90;;;;;;2621640;46;20876;31
2023/06/30 07:19:00;;;;;;;8.65;5.65;;;26.00;99.90;;;;;;2603189;54;20073;31
2023/06/30 07:21:39;;;;;;;12.85;5.63;;;26.10;99.90;;;;;;2603241;54;20275;31
2023/06/30 07:24:18;;;;;;;9.95;5.05;;;26.00;99.90;;;;;;2603220;54;20030;31
2023/06/30 07:27:10;;;;;;;8.15;5.85;;;26.10;99.90;;;;;;2603041;54;20034;31
2023/06/30 07:30:04;;;;;;;8.10;5.47;;;26.20;99.90;;;;;;2603134;54;20037;31
2023/06/30 07:32:44;;;;;;;12.50;5.30;;;26.30;99.90;;;;;;2603134;54;20022;31
2023/06/30 07:35:29;;;;;;;9.13;5.15;;;26.70;99.90;;;;;;2603259;54;20035;31
2023/06/30 07:38:17;;;;;;;8.17;4.13;;;26.90;99.90;;;;;;2602866;54;20895;31
2023/06/30 07:40:52;;;;;;;10.65;5.07;;;27.00;99.90;;;;;;2603116;54;20924;31
2023/06/30 07:43:40;;;;;;;9.43;3.97;;;27.30;99.90;;;;;;2603187;54;20838;31
2023/06/30 07:46:18;;;;;;;10.95;3.35;;;27.50;99.90;;;;;;2602980;54;21206;31
2023/06/30 07:49:00;;;;;;;8.25;3.30;;;27.50;99.90;;;;;;2603034;54;20139;31
2023/06/30 07:51:59;;;;;;;9.95;3.65;;;27.50;99.90;;;;;;2621500;46;20028;31
2023/06/30 07:54:53;;;;;;;8.27;3.25;;;27.50;99.90;;;;;;2603051;54;20857;31
2023/06/30 08:03:02;;;;;;;6.93;2.67;;;27.30;99.90;;;;;;2621464;46;20023;31
2023/06/30 08:05:46;;;;;;;7.53;2.63;;;27.20;99.90;;;;;;2621395;46;20026;31
2023/06/30 08:08:23;;;;;;;47.57;10.10;;;27.10;99.90;;;;;;2603077;54;20023;31
2023/06/30 08:11:07;;;;;;;204.35;39.72;;;27.10;99.90;;;;;;2602613;54;20958;31
2023/06/30 08:13:43;;;;;;;25.27;5.57;;;27.00;99.90;;;;;;2602064;54;20290;31
2023/06/30 08:16:21;;;;;;;8.50;2.60;;;27.00;99.90;;;;;;2602077;54;20042;31
2023/06/30 08:18:58;;;;;;;6.82;2.58;;;27.10;99.90;;;;;;2602637;54;20902;31
2023/06/30 08:21:39;;;;;;;4.80;2.65;;;27.10;99.90;;;;;;2602749;54;20034;31
2023/06/30 08:24:17;;;;;;;7.20;2.25;;;27.10;99.90;;;;;;2602862;54;20037;31
2023/06/30 08:27:14;;;;;;;7.15;2.75;;;27.10;99.90;;;;;;2621443;46;22485;31
2023/06/30 08:33:17;;;;;;;10.00;3.00;;;26.90;99.90;;;;;;2602482;54;20861;31
2023/06/30 08:36:19;;;;;;;6.85;2.50;;;26.90;99.90;;;;;;2602699;54;20085;31
2023/06/30 08:38:56;;;;;;;6.65;2.40;;;26.90;99.90;;;;;;2601954;54;20085;31
2023/06/30 08:41:38;;;;;;;5.35;1.80;;;26.90;99.90;;;;;;2603061;54;20793;31
2023/06/30 08:44:21;;;;;;;6.20;1.85;;;26.80;99.90;;;;;;2602784;54;20875;31
2023/06/30 08:47:02;;;;;;;5.05;2.28;;;26.80;99.90;;;;;;2621159;46;20925;31
2023/06/30 08:49:48;;;;;;;5.18;2.15;;;26.80;99.90;;;;;;2602906;54;21243;31
2023/06/30 08:52:34;;;;;;;5.33;2.37;;;26.80;99.90;;;;;;2602953;54;20046;31
2023/06/30 08:55:15;;;;;;;4.50;2.30;;;26.80;99.90;;;;;;2602615;54;20984;31
2023/06/30 08:57:54;;;;;;;7.15;3.03;;;26.80;99.90;;;;;;2602892;54;20033;31
2023/06/30 09:00:46;;;;;;;5.37;2.47;;;26.80;99.90;;;;;;2602838;54;20101;31
2023/06/30 09:03:27;;;;;;;6.50;2.55;;;26.80;99.90;;;;;;2602747;54;20897;31
2023/06/30 09:06:12;;;;;;;7.60;2.20;;;26.80;99.90;;;;;;2602464;54;20033;31
2023/06/30 09:11:44;;;;;;;4.50;2.00;;;26.70;99.90;;;;;;2602689;54;20022;31
2023/06/30 09:14:25;;;;;;;8.48;2.13;;;26.60;99.90;;;;;;2621619;46;20746;31
2023/06/30 09:17:21;;;;;;;5.55;1.80;;;26.50;99.90;;;;;;2601922;54;20140;31
2023/06/30 09:20:01;;;;;;;5.07;2.28;;;26.60;99.90;;;;;;2611575;46;20902;31
2023/06/30 09:22:52;;;;;;;4.90;2.37;;;26.40;99.90;;;;;;2602721;54;20033;31
2023/06/30 09:28:14;;;;;;;6.23;2.20;;;26.20;99.90;;;;;;2602697;54;20029;31
2023/06/30 09:30:51;;;;;;;5.93;2.03;;;26.10;99.90;;;;;;2602631;54;20022;31
2023/06/30 09:33:28;;;;;;;6.65;1.95;;;26.10;99.90;;;;;;2620973;46;20030;31
2023/06/30 09:36:04;;;;;;;6.10;1.87;;;26.00;99.90;;;;;;2602429;54;20046;31
2023/06/30 09:38:46;;;;;;;6.13;2.63;;;26.00;99.90;;;;;;2602568;54;20030;31
2023/06/30 09:41:25;;;;;;;6.13;1.80;;;25.90;99.90;;;;;;2621253;46;20751;31
2023/06/30 09:44:04;;;;;;;6.43;2.90;;;25.90;99.90;;;;;;2621315;46;20911;31
2023/06/30 09:46:39;;;;;;;9.45;2.92;;;25.80;99.90;;;;;;2602494;54;20816;31
2023/06/30 09:49:15;;;;;;;;;;;25.80;99.90;;;;;;2602953;54;20911;31
2023/06/30 09:51:53;;;;;;;6.10;2.15;;;25.80;99.90;;;;;;2602738;54;20060;31
2023/06/30 09:54:33;;;;;;;5.85;1.83;;;25.70;99.90;;;;;;2602728;54;20969;31
2023/06/30 09:57:20;;;;;;;6.60;2.25;;;25.60;99.90;;;;;;2620850;46;20891;31
2023/06/30 09:59:56;;;;;;;6.45;1.70;;;25.60;99.90;;;;;;2620975;46;20834;31
2023/06/30 10:02:32;;;;;;;8.50;2.20;;;25.60;99.90;;;;;;2602559;54;20027;31
2023/06/30 10:05:09;;;;;;;7.38;3.30;;;25.60;99.90;;;;;;2602562;54;20854;31
2023/06/30 10:07:47;;;;;;;5.35;2.47;;;25.60;99.90;;;;;;2601700;54;20034;31
2023/06/30 10:10:27;;;;;;;8.57;2.30;;;25.60;99.90;;;;;;2601744;54;20042;31
2023/06/30 10:13:06;;;;;;;4.65;2.30;;;25.60;99.90;;;;;;2620608;47;20037;31
2023/06/30 10:18:22;;;;;;;5.97;2.00;;;25.70;99.90;;;;;;2602597;54;20033;31
2023/06/30 10:20:58;;;;;;;5.57;2.40;;;25.80;99.90;;;;;;2602603;54;20880;31
2023/06/30 10:23:35;;;;;;;6.90;1.88;;;25.90;99.90;;;;;;2614699;47;21878;31
2023/06/30 10:26:15;;;;;;;5.85;1.70;;;26.00;99.90;;;;;;2602500;54;20919;31
2023/06/30 10:28:51;;;;;;;9.10;2.17;;;26.00;99.90;;;;;;2602631;54;20049;31
2023/06/30 10:31:27;;;;;;;5.03;1.95;;;26.10;99.90;;;;;;2621351;47;20905;31
2023/06/30 10:34:06;;;;;;;4.88;2.00;;;26.20;99.90;;;;;;2602378;54;20102;31
2023/06/30 10:36:52;;;;;;;6.00;2.20;;;26.20;99.90;;;;;;2602436;54;20038;31
2023/06/30 10:39:29;;;;;;;5.13;1.80;;;26.20;99.90;;;;;;2700972;39;21453;31
2023/06/30 10:42:16;;;;;;;4.80;2.20;;;26.10;99.90;;;;;;2602725;54;20068;31
2023/06/30 10:44:52;;;;;;;5.90;2.13;;;26.10;99.90;;;;;;2621527;46;20776;31
2023/06/30 10:47:28;;;;;;;7.43;2.83;;;26.10;99.90;;;;;;2701407;39;21629;31
2023/06/30 10:50:14;;;;;;;6.35;2.60;;;26.10;99.90;;;;;;2603380;54;20027;31
2023/06/30 10:52:53;;;;;;;6.20;2.67;;;26.10;99.90;;;;;;2603337;54;21722;31
2023/06/30 10:55:32;;;;;;;5.72;2.60;;;26.00;99.90;;;;;;2621922;46;20030;31
2023/06/30 10:58:14;;;;;;;6.15;2.05;;;26.00;99.90;;;;;;2621629;46;20033;31
2023/06/30 11:01:04;;;;;;;5.57;2.00;;;26.00;99.90;;;;;;2603375;54;20022;31
2023/06/30 11:03:39;;;;;;;5.50;1.70;;;26.10;99.90;;;;;;2603347;54;20033;31
2023/06/30 11:06:19;;;;;;;12.05;2.45;;;26.10;99.90;;;;;;2603197;54;20273;31
2023/06/30 11:09:12;;;;;;;6.88;2.35;;;26.10;99.90;;;;;;2621803;46;20118;31
2023/06/30 11:11:51;;;;;;;3.10;1.60;;;26.20;99.90;;;;;;2602984;54;20022;31
2023/06/30 11:14:42;;;;;;;4.55;2.10;;;26.20;99.90;;;;;;2603035;54;20037;31
2023/06/30 11:17:20;;;;;;;8.07;2.13;;;26.20;99.90;;;;;;2603268;54;20023;31
2023/06/30 11:20:12;;;;;;;4.45;1.90;;;26.10;99.90;;;;;;2603181;54;20746;31
2023/06/30 11:23:00;;;;;;;3.30;1.90;;;26.10;99.90;;;;;;2603288;54;20053;31
2023/06/30 11:25:41;;;;;;;3.30;1.90;;;26.10;99.90;;;;;;2621502;46;22357;31
2023/06/30 11:28:17;;;;;;;7.43;1.90;;;26.10;99.90;;;;;;2603249;54;20026;31
2023/06/30 11:31:03;;;;;;;9.77;2.50;;;26.10;99.90;;;;;;2603099;54;20022;31
2023/06/30 11:33:43;;;;;;;5.28;1.75;;;26.00;99.90;;;;;;2603180;54;20085;31
2023/06/30 11:36:21;;;;;;;6.57;1.75;;;26.00;99.90;;;;;;2621720;46;22476;31
2023/06/30 11:38:57;;;;;;;4.38;1.77;;;26.00;99.90;;;;;;2621254;46;20027;31
2023/06/30 11:41:35;;;;;;;5.55;2.10;;;26.00;99.90;;;;;;2603123;54;20026;31
2023/06/30 11:44:17;;;;;;;3.10;1.98;;;26.10;99.90;;;;;;2603352;54;20878;31
2023/06/30 11:47:00;;;;;;;3.67;2.20;;;26.00;99.90;;;;;;2602926;54;20033;31
2023/06/30 11:49:39;;;;;;;6.25;2.00;;;26.10;99.90;;;;;;2603232;54;20955;31
2023/06/30 11:52:22;;;;;;;5.35;2.10;;;26.10;99.90;;;;;;2603179;54;21685;31
2023/06/30 11:54:57;;;;;;;5.07;2.20;;;26.10;99.90;;;;;;2603124;54;20030;31
2023/06/30 11:57:37;;;;;;;2.90;1.88;;;26.10;99.90;;;;;;2603294;54;21210;31
2023/06/30 12:00:34;;;;;;;8.00;2.45;;;26.20;99.90;;;;;;2621359;46;21170;31
2023/06/30 12:03:18;;;;;;;4.82;1.83;;;26.30;99.90;;;;;;2602733;54;20903;31
2023/06/30 12:06:04;;;;;;;6.45;2.15;;;26.30;99.90;;;;;;2621424;46;20957;31
2023/06/30 12:08:39;;;;;;;5.78;2.35;;;26.40;99.90;;;;;;2701557;39;20498;31
2023/06/30 12:11:15;;;;;;;;;;;26.40;99.90;;;;;;2621634;46;20031;31
2023/06/30 12:13:52;;;;;;;5.43;2.30;;;26.40;99.90;;;;;;2602793;54;19941;31
2023/06/30 12:16:29;;;;;;;7.38;2.67;;;26.40;99.90;;;;;;2621280;46;20994;31
2023/06/30 12:19:12;;;;;;;8.50;2.20;;;26.40;99.90;;;;;;2602919;54;20038;31
2023/06/30 12:21:54;;;;;;;7.22;2.30;;;26.40;99.90;;;;;;2602906;54;20026;31
2023/06/30 12:24:34;;;;;;;4.33;1.90;;;26.30;99.90;;;;;;2602808;54;20030;31
2023/06/30 12:27:12;;;;;;;5.83;2.10;;;26.30;99.90;;;;;;2621107;46;20788;31
2023/06/30 12:29:48;;;;;;;4.15;1.55;;;26.30;99.90;;;;;;2603041;54;20639;31
2023/06/30 12:32:23;;;;;;;6.40;2.10;;;26.20;99.90;;;;;;2603090;54;20026;31
2023/06/30 12:35:14;;;;;;;2.65;2.10;;;26.10;99.90;;;;;;2602896;54;20908;31
2023/06/30 12:37:51;;;;;;;5.80;2.67;;;26.00;99.90;;;;;;2602975;54;20834;31
2023/06/30 12:40:25;;;;;;;9.35;2.45;;;26.00;99.90;;;;;;2621230;46;22455;31
2023/06/30 12:43:04;;;;;;;3.78;2.50;;;26.00;99.90;;;;;;2602955;54;20846;31
2023/06/30 12:45:40;;;;;;;7.40;3.27;;;26.00;99.90;;;;;;2621144;46;20034;31
2023/06/30 12:48:17;;;;;;;7.72;2.45;;;25.90;99.90;;;;;;2602866;54;20034;31
2023/06/30 12:50:58;;;;;;;5.45;2.22;;;25.90;99.90;;;;;;2621497;46;20026;31
2023/06/30 12:53:37;;;;;;;5.85;1.90;;;26.00;99.90;;;;;;2621144;46;20923;31
2023/06/30 12:56:17;;;;;;;5.43;2.25;;;25.90;99.90;;;;;;2603027;54;20884;31
2023/06/30 12:58:54;;;;;;;5.38;2.00;;;26.00;99.90;;;;;;2602970;54;21000;31
2023/06/30 13:01:30;;;;;;;6.25;1.88;;;26.00;99.90;;;;;;2601997;54;20955;31
2023/06/30 13:04:07;;;;;;;11.70;2.33;;;25.90;99.90;;;;;;2601951;54;20111;31
2023/06/30 13:06:47;;;;;;;8.82;2.50;;;26.00;99.90;;;;;;2602174;54;20908;31
2023/06/30 13:09:23;;;;;;;5.85;2.42;;;26.00;99.90;;;;;;2602937;54;20044;31
2023/06/30 13:12:01;;;;;;;3.60;2.15;;;26.00;99.90;;;;;;2772840;31;21733;31
2023/06/30 13:14:39;;;;;;;6.78;2.40;;;26.00;99.90;;;;;;2602913;54;20998;31
2023/06/30 13:17:19;;;;;;;7.57;2.63;;;26.00;99.90;;;;;;2602657;54;20919;31
2023/06/30 13:20:00;;;;;;;11.05;2.28;;;26.00;99.90;;;;;;2601903;54;20041;31
2023/06/30 13:22:41;;;;;;;5.53;2.33;;;25.90;99.90;;;;;;2602146;54;20599;31
2023/06/30 13:25:29;;;;;;;5.45;2.58;;;25.90;99.90;;;;;;2602861;54;21160;31
2023/06/30 13:28:08;;;;;;;4.80;2.87;;;25.90;99.90;;;;;;2602780;54;20093;31
2023/06/30 13:30:47;;;;;;;9.43;3.30;;;25.80;99.90;;;;;;2602661;54;20022;31
2023/06/30 13:35:59;;;;;;;27.05;5.00;;;25.60;99.90;;;;;;2602722;54;20029;31
2023/06/30 13:38:42;;;;;;;21.80;4.27;;;25.60;99.90;;;;;;2602612;54;20052;31
2023/06/30 13:41:24;;;;;;;14.23;3.58;;;25.50;99.90;;;;;;2602737;54;21368;31
2023/06/30 13:53:14;;;;;;;4.60;2.13;;;25.30;99.90;;;;;;2621303;46;20086;31
2023/06/30 13:56:01;;;;;;;5.90;2.42;;;25.20;99.90;;;;;;2620825;46;20034;31
2023/06/30 13:58:40;;;;;;;7.35;3.45;;;25.10;99.90;;;;;;2602776;54;20869;31
2023/06/30 14:01:20;;;;;;;8.85;3.80;;;25.00;99.90;;;;;;2602945;54;20023;31
2023/06/30 14:03:59;;;;;;;6.90;3.45;;;24.80;82.40;;;;;;2701258;39;21489;31
2023/06/30 14:06:42;;;;;;;9.05;4.10;;;24.70;99.90;;;;;;2602561;54;20085;31
2023/06/30 14:09:21;;;;;;;7.07;3.73;;;24.60;99.90;;;;;;2601795;54;20857;31
2023/06/30 14:12:03;;;;;;;9.60;3.90;;;24.50;96.60;;;;;;2602095;54;20867;31
2023/06/30 14:14:39;;;;;;;7.78;4.00;;;24.40;99.90;;;;;;2601910;54;20074;31
2023/06/30 14:17:21;;;;;;;8.75;4.65;;;24.40;99.90;;;;;;2602904;54;20760;31
2023/06/30 14:20:03;;;;;;;6.97;3.72;;;24.30;99.90;;;;;;2621949;46;20030;31
2023/06/30 14:22:45;;;;;;;7.78;4.43;;;24.30;99.90;;;;;;2603578;54;20023;31
2023/06/30 14:25:26;;;;;;;5.70;3.85;;;24.30;99.90;;;;;;2603574;54;20027;31
2023/06/30 14:28:06;;;;;;;9.70;4.65;;;24.30;99.90;;;;;;2603421;54;20908;31
2023/06/30 14:30:43;;;;;;;15.55;5.25;;;24.30;99.90;;;;;;2603616;54;20850;31
2023/06/30 14:33:25;;;;;;;7.35;5.30;;;24.30;99.90;;;;;;2602565;54;20101;31
2023/06/30 14:36:02;;;;;;;10.30;4.50;;;24.20;99.90;;;;;;2603145;54;20104;31
2023/06/30 14:38:46;;;;;;;10.83;4.30;;;24.30;99.90;;;;;;2603423;54;20030;31
2023/06/30 14:41:25;;;;;;;10.88;5.50;;;24.30;99.90;;;;;;2603230;54;20953;31
2023/06/30 14:44:02;;;;;;;9.73;5.50;;;24.40;99.90;;;;;;2621986;46;20034;31
2023/06/30 14:46:41;;;;;;;9.35;4.70;;;24.40;99.90;;;;;;2603280;54;20033;31
2023/06/30 14:49:19;;;;;;;7.05;4.53;;;24.40;99.90;;;;;;2602464;54;20763;31
2023/06/30 14:51:58;;;;;;;7.50;5.65;;;24.50;99.90;;;;;;2605422;46;20031;31
2023/06/30 14:57:13;;;;;;;10.55;4.63;;;24.50;99.90;;;;;;2602320;54;20926;31
2023/06/30 14:59:48;;;;;;;10.80;5.72;;;24.60;99.90;;;;;;2602279;54;20896;31